createdAt,value
2018-02-17T00:00:58.400Z,23.83
2018-02-17T00:03:26.697Z,9.07
2018-02-17T00:05:55.745Z,31.40
2018-02-17T00:08:24.086Z,18.23
2018-02-17T00:10:53.119Z,20.20
2018-02-17T00:13:22.216Z,28.50
2018-02-17T00:15:50.486Z,23.57
2018-02-17T00:18:19.637Z,23.73
2018-02-17T00:20:47.981Z,34.40
2018-02-17T00:23:16.249Z,30.80
2018-02-17T00:25:45.359Z,24.80
2018-02-17T00:28:13.630Z,18.77
2018-02-17T00:30:42.778Z,24.17
2018-02-17T00:33:11.047Z,24.03
2018-02-17T00:35:40.102Z,22.53
2018-02-17T00:38:08.504Z,42.10
2018-02-17T00:40:36.786Z,38.00
2018-02-17T00:43:05.137Z,27.70
2018-02-17T00:45:33.453Z,25.73
2018-02-17T00:48:01.766Z,28.20
2018-02-17T00:50:30.071Z,27.63
2018-02-17T00:52:59.100Z,22.00
2018-02-17T00:55:27.386Z,23.77
2018-02-17T00:57:55.961Z,27.17
2018-02-17T01:00:24.252Z,20.60
2018-02-17T01:02:52.552Z,19.10
2018-02-17T01:05:20.819Z,12.17
2018-02-17T01:07:49.194Z,50.67
2018-02-17T01:10:17.463Z,22.40
2018-02-17T01:12:45.840Z,23.43
2018-02-17T01:15:14.104Z,23.63
2018-02-17T01:17:42.466Z,35.57
2018-02-17T01:20:10.774Z,19.90
2018-02-17T01:22:39.058Z,19.27
2018-02-17T01:25:07.408Z,21.60
2018-02-17T01:27:35.739Z,35.27
2018-02-17T01:30:04.023Z,26.37
2018-02-17T01:32:32.435Z,34.83
2018-02-17T01:35:00.715Z,28.60
2018-02-17T01:37:29.030Z,15.53
2018-02-17T01:39:57.335Z,24.17
2018-02-17T01:42:25.629Z,23.93
2018-02-17T01:44:54.740Z,27.77
2018-02-17T01:47:23.760Z,30.63
2018-02-17T01:49:52.121Z,26.10
2018-02-17T01:52:20.401Z,24.47
2018-02-17T01:54:48.685Z,21.70
2018-02-17T01:57:16.987Z,26.97
2018-02-17T01:59:45.262Z,24.97
2018-02-17T02:02:13.633Z,22.93
2018-02-17T02:04:42.749Z,37.73
2018-02-17T02:07:11.029Z,24.83
2018-02-17T02:09:39.356Z,22.60
2018-02-17T02:12:07.773Z,27.37
2018-02-17T02:14:36.081Z,28.70
2018-02-17T02:17:05.129Z,27.03
2018-02-17T02:19:33.475Z,32.53
2018-02-17T02:22:01.752Z,32.97
2018-02-17T02:24:30.058Z,31.33
2018-02-17T02:26:58.376Z,35.87
2018-02-17T02:29:26.788Z,23.70
2018-02-17T02:31:55.852Z,27.93
2018-02-17T02:34:24.893Z,25.37
2018-02-17T02:36:53.234Z,24.37
2018-02-17T02:39:21.542Z,15.00
2018-02-17T02:41:49.808Z,24.73
2018-02-17T02:44:18.157Z,31.03
2018-02-17T02:46:46.469Z,24.43
2018-02-17T02:49:14.851Z,20.53
2018-02-17T02:51:43.208Z,26.03
2018-02-17T02:54:12.234Z,31.03
2018-02-17T02:56:40.537Z,14.93
2018-02-17T02:59:08.828Z,26.37
2018-02-17T03:01:37.177Z,25.00
2018-02-17T03:04:05.526Z,26.63
2018-02-17T03:06:34.555Z,20.20
2018-02-17T03:09:02.894Z,16.27
2018-02-17T03:11:32.002Z,17.70
2018-02-17T03:14:00.347Z,22.60
2018-02-17T03:16:28.750Z,24.80
2018-02-17T03:18:57.072Z,27.93
2018-02-17T03:21:25.336Z,24.03
2018-02-17T03:23:53.729Z,32.13
2018-02-17T03:26:21.988Z,25.73
2018-02-17T03:28:50.271Z,24.90
2018-02-17T03:31:18.576Z,20.70
2018-02-17T03:33:46.864Z,14.97
2018-02-17T03:36:15.183Z,27.23
2018-02-17T03:38:43.466Z,23.27
2018-02-17T03:41:11.839Z,22.83
2018-02-17T03:43:40.142Z,39.30
2018-02-17T03:46:08.441Z,23.03
2018-02-17T03:48:37.050Z,27.90
2018-02-17T03:51:06.091Z,24.07
2018-02-17T03:53:34.398Z,29.30
2018-02-17T03:56:02.805Z,30.10
2018-02-17T03:58:31.119Z,23.20
2018-02-17T04:00:59.459Z,30.83
2018-02-17T04:03:27.722Z,28.20
2018-02-17T04:05:56.810Z,32.40
2018-02-17T04:08:25.912Z,33.80
2018-02-17T04:10:54.307Z,24.83
2018-02-17T04:13:22.570Z,25.93
2018-02-17T04:15:51.682Z,26.07
2018-02-17T04:18:19.953Z,32.87
2018-02-17T04:20:48.277Z,25.93
2018-02-17T04:23:16.551Z,32.23
2018-02-17T04:25:44.892Z,31.33
2018-02-17T04:28:13.152Z,23.70
2018-02-17T04:30:41.413Z,13.70
2018-02-17T04:33:10.534Z,8.57
2018-02-17T04:35:38.831Z,20.57
2018-02-17T04:38:07.140Z,19.13
2018-02-17T04:44:04.389Z,26.40
2018-02-17T04:46:37.374Z,36.77
2018-02-17T04:49:10.511Z,26.20
2018-02-17T04:51:57.350Z,58.17
2018-02-17T04:54:31.838Z,30.10
2018-02-17T04:57:08.849Z,22.77
2018-02-17T04:59:46.065Z,17.63
2018-02-17T05:02:19.969Z,23.23
2018-02-17T05:04:50.953Z,24.33
2018-02-17T05:10:24.152Z,29.90
2018-02-17T05:12:52.501Z,45.33
2018-02-17T05:15:20.773Z,25.47
2018-02-17T05:17:54.756Z,26.20
2018-02-17T05:20:38.816Z,26.97
2018-02-17T05:23:23.842Z,27.60
2018-02-17T05:25:53.203Z,34.03
2018-02-17T05:28:25.977Z,31.83
2018-02-17T05:31:09.960Z,23.40
2018-02-17T05:33:53.118Z,35.60
2018-02-17T05:36:25.690Z,27.33
2018-02-17T05:39:06.492Z,28.57
2018-02-17T05:41:40.543Z,20.90
2018-02-17T05:44:08.896Z,34.40
2018-02-17T05:46:37.331Z,34.03
2018-02-17T05:49:20.212Z,19.23
2018-02-17T05:51:48.489Z,28.23
2018-02-17T05:54:16.813Z,27.10
2018-02-17T05:56:45.078Z,32.47
2018-02-17T05:59:14.104Z,34.27
2018-02-17T06:01:42.485Z,42.27
2018-02-17T06:04:10.759Z,25.50
2018-02-17T06:06:39.095Z,38.53
2018-02-17T06:09:07.461Z,41.50
2018-02-17T06:11:36.544Z,34.87
2018-02-17T06:14:04.924Z,25.10
2018-02-17T06:16:33.199Z,31.53
2018-02-17T06:19:01.585Z,35.83
2018-02-17T06:21:30.726Z,28.10
2018-02-17T06:23:59.117Z,32.87
2018-02-17T06:26:27.408Z,40.70
2018-02-17T06:28:55.772Z,31.17
2018-02-17T06:31:24.042Z,38.53
2018-02-17T06:33:52.351Z,45.30
2018-02-17T06:36:20.844Z,33.70
2018-02-17T06:38:49.120Z,23.50
2018-02-17T06:41:17.445Z,25.13
2018-02-17T06:43:45.724Z,28.67
2018-02-17T06:46:14.051Z,33.20
2018-02-17T06:48:42.415Z,45.53
2018-02-17T06:51:10.745Z,29.50
2018-02-17T06:53:39.141Z,26.97
2018-02-17T06:56:07.418Z,25.10
2018-02-17T06:58:35.688Z,37.70
2018-02-17T07:01:04.003Z,20.30
2018-02-17T07:03:33.223Z,35.07
2018-02-17T07:06:02.310Z,26.97
2018-02-17T07:08:31.357Z,38.13
2018-02-17T07:10:59.768Z,33.67
2018-02-17T07:13:28.166Z,44.80
2018-02-17T07:15:57.224Z,32.90
2018-02-17T07:18:26.445Z,40.90
2018-02-17T07:20:54.799Z,37.80
2018-02-17T07:23:23.847Z,30.30
2018-02-17T07:25:53.745Z,29.93
2018-02-17T07:28:22.033Z,35.40
2018-02-17T07:30:50.326Z,35.50
2018-02-17T07:33:18.737Z,35.90
2018-02-17T07:35:47.139Z,27.37
2018-02-17T07:38:15.438Z,27.00
2018-02-17T07:40:44.525Z,45.50
2018-02-17T07:43:12.796Z,25.37
2018-02-17T07:45:41.199Z,27.43
2018-02-17T07:48:10.228Z,40.00
2018-02-17T07:50:38.517Z,27.97
2018-02-17T07:53:07.677Z,34.47
2018-02-17T07:55:35.983Z,38.93
2018-02-17T07:58:04.326Z,34.80
2018-02-17T08:00:32.610Z,43.27
2018-02-17T08:03:01.064Z,32.27
2018-02-17T08:05:29.328Z,24.87
2018-02-17T08:07:57.694Z,26.73
2018-02-17T08:10:25.985Z,37.57
2018-02-17T08:12:54.288Z,31.93
2018-02-17T08:15:22.888Z,36.50
2018-02-17T08:17:51.194Z,35.00
2018-02-17T08:20:20.317Z,31.67
2018-02-17T08:22:48.586Z,30.23
2018-02-17T08:25:16.866Z,33.00
2018-02-17T08:27:45.302Z,33.60
2018-02-17T08:30:14.358Z,40.90
2018-02-17T08:32:43.455Z,29.33
2018-02-17T08:35:12.494Z,31.47
2018-02-17T08:37:40.797Z,39.13
2018-02-17T08:40:09.061Z,50.63
2018-02-17T08:42:37.516Z,36.20
2018-02-17T08:45:05.808Z,37.93
2018-02-17T08:47:34.217Z,32.67
2018-02-17T08:50:02.488Z,34.67
2018-02-17T08:52:30.863Z,35.03
2018-02-17T08:54:59.165Z,30.83
2018-02-17T08:57:27.510Z,37.47
2018-02-17T08:59:56.152Z,33.10
2018-02-17T09:02:24.903Z,35.23
2018-02-17T09:04:55.001Z,40.63
2018-02-17T09:07:23.853Z,26.17
2018-02-17T09:09:52.136Z,26.00
2018-02-17T09:12:20.769Z,35.67
2018-02-17T09:14:49.044Z,33.80
2018-02-17T09:17:17.317Z,38.07
2018-02-17T09:19:45.695Z,31.43
2018-02-17T09:22:13.957Z,31.63
2018-02-17T09:24:42.223Z,30.07
2018-02-17T09:27:10.577Z,36.27
2018-02-17T09:29:38.902Z,36.90
2018-02-17T09:32:07.266Z,33.20
2018-02-17T09:34:35.605Z,34.17
2018-02-17T09:37:03.866Z,37.77
2018-02-17T09:39:32.967Z,29.37
2018-02-17T09:42:02.017Z,32.57
2018-02-17T09:44:30.372Z,38.37
2018-02-17T09:46:59.481Z,34.23
2018-02-17T09:49:27.746Z,44.10
2018-02-17T09:51:56.227Z,35.63
2018-02-17T09:54:24.712Z,28.57
2018-02-17T09:56:53.039Z,40.20
2018-02-17T09:59:22.148Z,36.03
2018-02-17T10:01:51.310Z,30.90
2018-02-17T10:04:19.651Z,33.60
2018-02-17T10:06:47.900Z,27.97
2018-02-17T10:09:16.915Z,37.13
2018-02-17T10:11:45.276Z,30.83
2018-02-17T10:14:14.355Z,33.80
2018-02-17T10:16:43.509Z,43.30
2018-02-17T10:19:11.890Z,28.40
2018-02-17T10:21:40.335Z,31.53
2018-02-17T10:24:08.749Z,33.00
2018-02-17T10:26:37.116Z,38.63
2018-02-17T10:29:05.437Z,27.40
2018-02-17T10:31:33.693Z,28.67
2018-02-17T10:34:02.977Z,33.30
2018-02-17T10:36:31.622Z,32.97
2018-02-17T10:39:00.733Z,31.50
2018-02-17T10:41:29.002Z,31.33
2018-02-17T10:43:57.266Z,33.33
2018-02-17T10:46:27.614Z,39.87
2018-02-17T10:48:55.946Z,30.67
2018-02-17T10:51:24.495Z,30.93
2018-02-17T10:53:52.757Z,33.83
2018-02-17T10:56:21.719Z,46.13
2018-02-17T10:58:50.274Z,30.77
2018-02-17T11:01:18.815Z,29.50
2018-02-17T11:03:47.120Z,33.30
2018-02-17T11:06:15.430Z,37.13
2018-02-17T11:08:43.673Z,34.13
2018-02-17T11:11:12.062Z,33.00
2018-02-17T11:13:40.338Z,30.50
2018-02-17T11:16:08.673Z,33.40
2018-02-17T11:18:36.969Z,24.83
2018-02-17T11:21:05.241Z,38.17
2018-02-17T11:23:33.617Z,28.93
2018-02-17T11:26:01.888Z,23.63
2018-02-17T11:28:31.046Z,34.57
2018-02-17T11:31:00.121Z,31.30
2018-02-17T11:33:28.395Z,37.43
2018-02-17T11:35:56.688Z,34.73
2018-02-17T11:38:27.132Z,34.63
2018-02-17T11:40:56.163Z,28.83
2018-02-17T11:43:24.506Z,41.13
2018-02-17T11:45:52.819Z,35.23
2018-02-17T11:48:21.179Z,36.67
2018-02-17T11:50:49.505Z,30.97
2018-02-17T11:53:17.778Z,28.73
2018-02-17T11:55:46.233Z,31.60
2018-02-17T11:58:14.505Z,43.27
2018-02-17T12:00:42.802Z,28.93
2018-02-17T12:03:11.090Z,22.57
2018-02-17T12:05:40.313Z,29.73
2018-02-17T12:08:09.356Z,33.10
2018-02-17T12:10:37.651Z,39.27
2018-02-17T12:13:06.022Z,12.73
2018-02-17T12:15:34.285Z,34.57
2018-02-17T12:18:03.721Z,34.37
2018-02-17T12:20:31.975Z,32.30
2018-02-17T12:23:00.243Z,32.10
2018-02-17T12:25:29.382Z,32.23
2018-02-17T12:27:58.508Z,28.80
2018-02-17T12:30:26.764Z,28.03
2018-02-17T12:32:55.924Z,36.70
2018-02-17T12:35:24.235Z,37.17
2018-02-17T12:37:53.844Z,35.17
2018-02-17T12:40:22.938Z,28.53
2018-02-17T12:42:51.969Z,28.80
2018-02-17T12:45:21.300Z,29.30
2018-02-17T12:47:49.625Z,24.80
2018-02-17T12:50:17.970Z,37.77
2018-02-17T12:52:48.011Z,30.70
2018-02-17T12:55:17.674Z,30.30
2018-02-17T12:57:46.714Z,28.97
2018-02-17T13:00:15.777Z,35.20
2018-02-17T13:02:44.078Z,36.77
2018-02-17T13:05:13.145Z,35.60
2018-02-17T13:07:41.524Z,32.37
2018-02-17T13:10:09.852Z,27.43
2018-02-17T13:12:38.196Z,24.17
2018-02-17T13:15:06.584Z,30.13
2018-02-17T13:17:35.632Z,27.47
2018-02-17T13:20:03.906Z,31.10
2018-02-17T13:22:32.267Z,25.23
2018-02-17T13:25:00.672Z,26.80
2018-02-17T13:27:28.938Z,28.23
2018-02-17T13:29:57.235Z,20.53
2018-02-17T13:32:25.619Z,37.63
2018-02-17T13:34:53.972Z,37.53
2018-02-17T13:37:22.332Z,27.37
2018-02-17T13:39:51.631Z,29.70
2018-02-17T13:42:20.602Z,41.70
2018-02-17T13:44:48.925Z,28.67
2018-02-17T13:47:17.190Z,31.53
2018-02-17T13:49:45.478Z,28.13
2018-02-17T13:52:13.852Z,41.67
2018-02-17T13:54:42.140Z,28.73
2018-02-17T13:57:11.292Z,28.43
2018-02-17T13:59:40.166Z,30.47
2018-02-17T14:02:09.316Z,33.10
2018-02-17T14:04:37.617Z,26.43
2018-02-17T14:07:06.020Z,29.93
2018-02-17T14:09:35.034Z,27.13
2018-02-17T14:12:03.404Z,24.60
2018-02-17T14:14:31.696Z,27.47
2018-02-17T14:17:01.003Z,44.13
2018-02-17T14:19:29.277Z,30.63
2018-02-17T14:21:58.411Z,30.80
2018-02-17T14:24:26.781Z,33.20
2018-02-17T14:26:55.041Z,26.07
2018-02-17T14:29:24.160Z,34.87
2018-02-17T14:31:52.444Z,19.23
2018-02-17T14:34:20.825Z,16.97
2018-02-17T14:36:49.156Z,40.90
2018-02-17T14:39:17.584Z,35.43
2018-02-17T14:41:45.844Z,31.40
2018-02-17T14:44:14.767Z,30.63
2018-02-17T14:46:43.802Z,21.80
2018-02-17T14:49:12.075Z,19.60
2018-02-17T14:51:40.597Z,23.97
2018-02-17T14:54:08.893Z,27.27
2018-02-17T14:56:38.050Z,29.87
2018-02-17T14:59:06.315Z,26.80
2018-02-17T15:01:34.974Z,26.47
2018-02-17T15:04:03.305Z,34.13
2018-02-17T15:06:31.766Z,25.37
2018-02-17T15:09:00.026Z,26.10
2018-02-17T15:11:28.385Z,29.20
2018-02-17T15:13:56.642Z,28.30
2018-02-17T15:16:24.945Z,27.80
2018-02-17T15:18:53.273Z,22.07
2018-02-17T15:21:21.525Z,28.30
2018-02-17T15:23:49.850Z,29.53
2018-02-17T15:26:18.892Z,29.10
2018-02-17T15:28:47.262Z,26.27
2018-02-17T15:31:15.659Z,25.13
2018-02-17T15:33:43.976Z,29.47
2018-02-17T15:36:13.072Z,34.70
2018-02-17T15:38:42.130Z,27.60
2018-02-17T15:41:10.448Z,25.33
2018-02-17T15:43:39.480Z,26.37
2018-02-17T15:46:07.840Z,32.77
2018-02-17T15:48:36.260Z,19.67
2018-02-17T15:51:04.572Z,31.03
2018-02-17T15:53:35.665Z,28.63
2018-02-17T15:56:04.003Z,31.00
2018-02-17T15:58:32.281Z,30.00
2018-02-17T16:01:01.308Z,25.63
2018-02-17T16:03:29.716Z,24.17
2018-02-17T16:05:57.986Z,26.00
2018-02-17T16:08:26.360Z,22.60
2018-02-17T16:10:54.900Z,22.60
2018-02-17T16:13:23.161Z,21.90
2018-02-17T16:15:52.218Z,25.90
2018-02-17T16:18:20.557Z,24.23
2018-02-17T16:20:48.864Z,19.07
2018-02-17T16:23:17.182Z,28.23
2018-02-17T16:25:46.343Z,26.60
2018-02-17T16:28:14.605Z,25.40
2018-02-17T16:30:42.887Z,8.90
2018-02-17T16:33:11.254Z,19.13
2018-02-17T16:35:39.511Z,25.73
2018-02-17T16:38:07.814Z,29.73
2018-02-17T16:40:36.157Z,17.03
2018-02-17T16:43:04.520Z,23.30
2018-02-17T16:45:33.666Z,25.93
2018-02-17T16:48:01.930Z,20.93
2018-02-17T16:50:30.190Z,19.37
2018-02-17T16:52:58.526Z,26.60
2018-02-17T16:55:27.086Z,24.77
2018-02-17T16:57:55.398Z,27.83
2018-02-17T17:00:23.710Z,15.87
2018-02-17T17:02:52.010Z,26.70
2018-02-17T17:05:20.261Z,24.10
2018-02-17T17:07:48.578Z,21.33
2018-02-17T17:10:18.433Z,24.63
2018-02-17T17:12:47.471Z,31.80
2018-02-17T17:15:15.812Z,26.57
2018-02-17T17:17:44.842Z,20.70
2018-02-17T17:20:13.124Z,30.10
2018-02-17T17:22:41.463Z,31.90
2018-02-17T17:25:09.731Z,27.27
2018-02-17T17:27:38.110Z,24.50
2018-02-17T17:30:08.274Z,35.17
2018-02-17T17:32:37.877Z,33.87
2018-02-17T17:35:06.807Z,23.30
2018-02-17T17:37:35.920Z,22.63
2018-02-17T17:40:04.313Z,36.00
2018-02-17T17:42:32.620Z,21.93
2018-02-17T17:45:02.770Z,29.07
2018-02-17T17:47:31.036Z,33.47
2018-02-17T17:49:59.418Z,30.60
2018-02-17T17:52:27.695Z,23.70
2018-02-17T17:54:55.988Z,29.33
2018-02-17T17:57:25.104Z,33.77
2018-02-17T17:59:54.999Z,38.43
2018-02-17T18:02:23.266Z,31.17
2018-02-17T18:04:51.574Z,29.70
2018-02-17T18:07:19.901Z,34.70
2018-02-17T18:09:48.141Z,34.90
2018-02-17T18:12:16.473Z,29.33
2018-02-17T18:14:44.750Z,39.87
2018-02-17T18:17:13.117Z,37.93
2018-02-17T18:19:41.394Z,34.17
2018-02-17T18:22:09.719Z,37.97
2018-02-17T18:24:38.032Z,47.43
2018-02-17T18:27:06.317Z,41.93
2018-02-17T18:29:34.611Z,52.83
2018-02-17T18:32:02.924Z,43.07
2018-02-17T18:34:31.183Z,49.70
2018-02-17T18:37:00.297Z,36.37
2018-02-17T18:39:28.560Z,44.27
2018-02-17T18:41:57.669Z,35.20
2018-02-17T18:44:26.031Z,43.70
2018-02-17T18:46:55.050Z,46.90
2018-02-17T18:49:25.273Z,35.03
2018-02-17T18:51:54.125Z,44.87
2018-02-17T18:54:23.252Z,46.93
2018-02-17T18:56:51.549Z,48.27
2018-02-17T18:59:19.863Z,40.03
2018-02-17T19:01:48.788Z,44.07
2018-02-17T19:04:17.103Z,41.73
2018-02-17T19:06:45.461Z,44.57
2018-02-17T19:09:13.751Z,41.97
2018-02-17T19:11:42.111Z,49.87
2018-02-17T19:14:10.369Z,55.73
2018-02-17T19:16:39.382Z,42.70
2018-02-17T19:19:07.681Z,39.60
2018-02-17T19:21:36.038Z,39.13
2018-02-17T19:24:04.354Z,42.17
2018-02-17T19:26:32.672Z,42.77
2018-02-17T19:29:00.989Z,41.00
2018-02-17T19:31:29.254Z,55.33
2018-02-17T19:33:57.855Z,44.20
2018-02-17T19:36:26.116Z,49.33
2018-02-17T19:38:54.420Z,34.07
2018-02-17T19:41:22.694Z,45.20
2018-02-17T19:43:51.040Z,52.57
2018-02-17T19:46:19.319Z,37.53
2018-02-17T19:48:47.592Z,46.50
2018-02-17T19:51:15.923Z,49.10
2018-02-17T19:53:44.968Z,47.20
2018-02-17T19:56:13.274Z,44.70
2018-02-17T19:58:41.586Z,44.23
2018-02-17T20:01:10.619Z,48.47
2018-02-17T20:03:38.941Z,35.93
2018-02-17T20:06:07.204Z,42.03
2018-02-17T20:08:35.664Z,46.57
2018-02-17T20:11:03.946Z,40.97
2018-02-17T20:13:32.260Z,45.53
2018-02-17T20:16:01.337Z,52.60
2018-02-17T20:18:29.599Z,44.37
2018-02-17T20:20:57.889Z,48.30
2018-02-17T20:23:26.279Z,50.67
2018-02-17T20:25:54.625Z,55.00
2018-02-17T20:28:22.910Z,47.70
2018-02-17T20:30:51.263Z,50.80
2018-02-17T20:33:19.528Z,45.70
2018-02-17T20:35:47.856Z,64.27
2018-02-17T20:38:16.156Z,53.00
2018-02-17T20:40:45.264Z,51.33
2018-02-17T20:43:13.678Z,43.23
2018-02-17T20:45:41.939Z,47.53
2018-02-17T20:48:10.245Z,48.13
2018-02-17T20:50:38.520Z,53.63
2018-02-17T20:53:06.888Z,49.40
2018-02-17T20:55:35.193Z,49.20
2018-02-17T20:58:04.259Z,36.57
2018-02-17T21:00:32.676Z,45.40
2018-02-17T21:03:01.764Z,57.50
2018-02-17T21:05:30.059Z,37.53
2018-02-17T21:07:59.206Z,46.53
2018-02-17T21:10:27.482Z,45.40
2018-02-17T21:12:56.522Z,47.27
2018-02-17T21:15:25.630Z,53.13
2018-02-17T21:17:53.910Z,51.27
2018-02-17T21:20:22.225Z,44.10
2018-02-17T21:22:50.664Z,55.97
2018-02-17T21:25:18.939Z,61.47
2018-02-17T21:27:47.226Z,49.03
2018-02-17T21:30:15.635Z,53.17
2018-02-17T21:32:43.948Z,49.37
2018-02-17T21:35:12.994Z,55.83
2018-02-17T21:37:41.317Z,40.40
2018-02-17T21:40:09.572Z,54.53
2018-02-17T21:42:37.921Z,47.10
2018-02-17T21:45:06.193Z,50.67
2018-02-17T21:47:34.472Z,53.07
2018-02-17T21:50:02.880Z,50.50
2018-02-17T21:52:31.144Z,39.10
2018-02-17T21:54:59.479Z,49.30
2018-02-17T21:57:27.743Z,42.90
2018-02-17T21:59:56.818Z,52.27
2018-02-17T22:02:25.172Z,64.40
2018-02-17T22:04:53.458Z,51.37
2018-02-17T22:07:21.837Z,62.90
2018-02-17T22:09:50.480Z,59.73
2018-02-17T22:12:18.750Z,75.47
2018-02-17T22:14:47.090Z,80.63
2018-02-17T22:17:15.559Z,71.60
2018-02-17T22:19:43.819Z,57.73
2018-02-17T22:22:12.130Z,42.67
2018-02-17T22:24:41.169Z,44.27
2018-02-17T22:27:09.514Z,57.17
2018-02-17T22:29:38.573Z,65.53
2018-02-17T22:32:06.908Z,47.87
2018-02-17T22:34:35.250Z,75.80
2018-02-17T22:37:03.527Z,45.00
2018-02-17T22:39:31.917Z,65.43
2018-02-17T22:42:00.959Z,69.60
2018-02-17T22:44:29.317Z,57.07
2018-02-17T22:46:57.729Z,71.90
2018-02-17T22:49:26.230Z,62.53
2018-02-17T22:51:54.489Z,78.17
2018-02-17T22:54:22.848Z,59.47
2018-02-17T22:56:51.159Z,48.60
2018-02-17T22:59:19.483Z,64.33
2018-02-17T23:01:47.850Z,80.57
2018-02-17T23:04:17.009Z,59.00
2018-02-17T23:06:45.369Z,47.80
2018-02-17T23:09:13.725Z,63.87
2018-02-17T23:11:42.152Z,60.63
2018-02-17T23:14:10.465Z,59.37
2018-02-17T23:16:38.729Z,52.77
2018-02-17T23:19:07.849Z,54.80
2018-02-17T23:21:36.234Z,62.10
2018-02-17T23:24:04.507Z,44.83
2018-02-17T23:26:32.821Z,54.13
2018-02-17T23:29:01.298Z,49.87
2018-02-17T23:31:29.650Z,73.80
2018-02-17T23:33:57.924Z,56.37
2018-02-17T23:36:26.312Z,51.83
2018-02-17T23:38:55.368Z,55.13
2018-02-17T23:41:23.671Z,78.43
2018-02-17T23:43:51.978Z,59.90
2018-02-17T23:46:20.352Z,65.80
2018-02-17T23:48:48.696Z,65.00
2018-02-17T23:51:17.079Z,42.93
2018-02-17T23:53:45.369Z,49.83
2018-02-17T23:56:13.777Z,71.23
2018-02-17T23:58:42.184Z,55.77
